createdAt,value
2019-06-07T00:00:40.664Z,16.30
2019-06-07T00:03:24.017Z,16.40
2019-06-07T00:05:47.539Z,16.40
2019-06-07T00:08:27.631Z,16.40
2019-06-07T00:10:54.144Z,16.30
2019-06-07T00:13:26.400Z,16.40
2019-06-07T00:15:58.942Z,16.60
2019-06-07T00:18:31.054Z,16.60
2019-06-07T00:21:03.210Z,16.50
2019-06-07T00:23:35.142Z,16.60
2019-06-07T00:26:08.389Z,16.60
2019-06-07T00:28:40.399Z,16.70
2019-06-07T00:31:14.934Z,16.60
2019-06-07T00:33:46.759Z,16.60
2019-06-07T00:36:22.544Z,16.50
2019-06-07T00:38:53.099Z,16.50
2019-06-07T00:41:25.826Z,16.50
2019-06-07T00:43:57.940Z,16.50
2019-06-07T00:46:29.877Z,16.50
2019-06-07T00:49:02.116Z,16.60
2019-06-07T00:51:49.675Z,16.50
2019-06-07T00:54:11.871Z,16.60
2019-06-07T00:56:44.872Z,16.50
2019-06-07T00:59:21.071Z,16.60
2019-06-07T01:01:51.306Z,16.70
2019-06-07T01:04:26.285Z,16.60
2019-06-07T01:06:57.663Z,16.60
2019-06-07T01:09:29.831Z,16.60
2019-06-07T01:12:02.059Z,16.50
2019-06-07T01:14:33.869Z,16.40
2019-06-07T01:17:36.321Z,16.40
2019-06-07T01:19:56.333Z,16.30
2019-06-07T01:22:29.445Z,16.50
2019-06-07T01:25:02.134Z,16.50
2019-06-07T01:27:34.323Z,16.50
2019-06-07T01:30:08.356Z,16.50
2019-06-07T01:32:40.315Z,16.50
2019-06-07T01:35:12.570Z,16.30
2019-06-07T01:37:45.149Z,16.30
2019-06-07T01:40:20.763Z,16.40
2019-06-07T01:42:52.825Z,16.40
2019-06-07T01:45:27.048Z,16.30
2019-06-07T01:47:58.612Z,16.30
2019-06-07T01:50:30.870Z,16.20
2019-06-07T01:53:02.751Z,16.20
2019-06-07T01:55:34.652Z,16.20
2019-06-07T01:58:06.923Z,16.10
2019-06-07T02:00:39.309Z,16.00
2019-06-07T02:03:11.754Z,16.20
2019-06-07T02:05:44.057Z,16.00
2019-06-07T02:08:16.267Z,16.00
2019-06-07T02:10:48.231Z,15.90
2019-06-07T02:13:21.270Z,16.10
2019-06-07T02:15:53.902Z,16.20
2019-06-07T02:18:29.132Z,16.30
2019-06-07T02:21:01.429Z,16.10
2019-06-07T02:23:33.902Z,15.80
2019-06-07T02:26:06.314Z,15.90
2019-06-07T02:28:45.458Z,15.90
2019-06-07T02:31:12.325Z,15.90
2019-06-07T02:33:44.338Z,16.00
2019-06-07T02:36:16.681Z,16.00
2019-06-07T02:38:49.241Z,16.00
2019-06-07T02:41:25.844Z,16.10
2019-06-07T02:43:55.271Z,15.90
2019-06-07T02:46:36.253Z,15.70
2019-06-07T02:49:01.443Z,15.70
2019-06-07T02:51:41.175Z,15.90
2019-06-07T02:54:07.516Z,15.90
2019-06-07T02:56:56.799Z,16.00
2019-06-07T02:59:13.944Z,15.90
2019-06-07T03:01:46.207Z,15.80
2019-06-07T03:04:18.441Z,16.00
2019-06-07T03:06:50.950Z,16.00
2019-06-07T03:09:23.370Z,16.00
2019-06-07T03:11:57.890Z,16.10
2019-06-07T03:14:35.176Z,16.10
2019-06-07T03:17:32.746Z,15.80
2019-06-07T03:20:06.063Z,15.90
2019-06-07T03:22:41.680Z,15.80
2019-06-07T03:25:14.084Z,15.80
2019-06-07T03:27:50.171Z,15.80
2019-06-07T03:30:52.763Z,15.70
2019-06-07T03:32:55.656Z,16.00
2019-06-07T03:35:30.988Z,16.10
2019-06-07T03:38:02.279Z,16.10
2019-06-07T03:40:38.501Z,16.10
2019-06-07T03:43:09.036Z,16.20
2019-06-07T03:45:41.713Z,16.20
2019-06-07T03:48:13.870Z,16.20
2019-06-07T03:50:46.320Z,16.20
2019-06-07T03:53:18.420Z,16.10
2019-06-07T03:55:50.442Z,15.90
2019-06-07T03:58:32.641Z,15.80
2019-06-07T04:01:01.771Z,15.70
2019-06-07T04:03:42.085Z,15.60
2019-06-07T04:06:05.290Z,15.80
2019-06-07T04:08:41.315Z,16.00
2019-06-07T04:11:11.228Z,16.20
2019-06-07T04:13:43.560Z,15.80
2019-06-07T04:16:15.955Z,15.80
2019-06-07T04:18:48.286Z,15.90
2019-06-07T04:21:20.406Z,15.70
2019-06-07T04:23:52.390Z,15.40
2019-06-07T04:26:24.626Z,15.20
2019-06-07T04:31:32.646Z,15.30
2019-06-07T04:34:05.219Z,15.20
2019-06-07T04:36:51.949Z,15.30
2019-06-07T04:39:12.285Z,15.30
2019-06-07T04:41:46.330Z,15.50
2019-06-07T04:44:18.320Z,15.60
2019-06-07T04:46:50.423Z,15.50
2019-06-07T04:49:23.841Z,15.30
2019-06-07T04:51:57.332Z,15.30
2019-06-07T04:54:31.501Z,15.60
2019-06-07T04:57:03.646Z,15.80
2019-06-07T05:00:11.040Z,15.90
2019-06-07T05:02:09.784Z,15.80
2019-06-07T05:04:42.455Z,16.00
2019-06-07T05:07:17.294Z,15.80
2019-06-07T05:09:49.757Z,16.00
2019-06-07T05:12:21.964Z,16.10
2019-06-07T05:14:54.314Z,16.10
2019-06-07T05:17:26.888Z,16.10
2019-06-07T05:19:59.212Z,16.10
2019-06-07T05:22:34.056Z,15.70
2019-06-07T05:25:05.255Z,15.80
2019-06-07T05:27:39.321Z,16.00
2019-06-07T05:30:51.082Z,16.30
2019-06-07T05:32:48.201Z,16.10
2019-06-07T05:35:20.726Z,16.40
2019-06-07T05:37:52.771Z,16.50
2019-06-07T05:40:34.850Z,16.60
2019-06-07T05:43:09.478Z,16.70
2019-06-07T05:45:44.656Z,16.70
2019-06-07T05:48:15.417Z,16.70
2019-06-07T05:50:55.956Z,16.80
2019-06-07T05:53:21.374Z,16.60
2019-06-07T05:55:53.351Z,16.50
2019-06-07T05:58:25.387Z,16.70
2019-06-07T06:01:41.041Z,16.80
2019-06-07T06:03:31.622Z,16.80
2019-06-07T06:06:04.275Z,16.60
2019-06-07T06:08:39.263Z,16.70
2019-06-07T06:11:10.841Z,16.80
2019-06-07T06:14:01.494Z,16.90
2019-06-07T06:16:17.470Z,17.10
2019-06-07T06:18:49.513Z,17.10
2019-06-07T06:21:21.579Z,17.20
2019-06-07T06:23:54.412Z,17.30
2019-06-07T06:26:26.817Z,17.10
2019-06-07T06:28:59.062Z,17.20
2019-06-07T06:31:31.924Z,17.30
2019-06-07T06:34:03.957Z,17.40
2019-06-07T06:36:37.370Z,17.60
2019-06-07T06:39:09.880Z,17.40
2019-06-07T06:41:56.769Z,17.20
2019-06-07T06:44:16.983Z,17.20
2019-06-07T06:46:57.251Z,17.50
2019-06-07T06:49:23.525Z,17.60
2019-06-07T06:51:55.692Z,17.60
2019-06-07T06:54:40.194Z,17.70
2019-06-07T06:57:18.975Z,17.80
2019-06-07T06:59:39.104Z,17.40
2019-06-07T07:02:10.431Z,17.40
2019-06-07T07:04:43.984Z,17.60
2019-06-07T07:07:17.252Z,17.70
2019-06-07T07:09:54.739Z,17.90
2019-06-07T07:12:23.189Z,18.20
2019-06-07T07:14:56.247Z,18.40
2019-06-07T07:17:48.013Z,18.50
2019-06-07T07:20:04.380Z,18.60
2019-06-07T07:22:36.278Z,18.50
2019-06-07T07:25:08.918Z,18.60
2019-06-07T07:27:41.992Z,18.60
2019-06-07T07:30:36.269Z,18.50
2019-06-07T07:32:53.398Z,18.20
2019-06-07T07:35:27.598Z,18.40
2019-06-07T07:40:56.797Z,18.70
2019-06-07T07:43:06.832Z,18.90
2019-06-07T07:45:39.238Z,19.00
2019-06-07T07:48:17.596Z,19.10
2019-06-07T07:50:49.097Z,18.90
2019-06-07T07:53:19.821Z,18.80
2019-06-07T07:55:58.504Z,19.00
2019-06-07T07:58:25.778Z,19.10
2019-06-07T08:01:09.640Z,18.90
2019-06-07T08:03:32.218Z,19.10
2019-06-07T08:06:04.251Z,18.80
2019-06-07T08:08:36.099Z,18.70
2019-06-07T08:11:08.294Z,18.60
2019-06-07T08:16:16.528Z,19.00
2019-06-07T08:18:50.915Z,19.20
2019-06-07T08:21:25.296Z,19.30
2019-06-07T08:23:58.237Z,19.40
2019-06-07T08:26:27.901Z,19.20
2019-06-07T08:29:02.907Z,19.10
2019-06-07T08:31:33.694Z,19.20
2019-06-07T08:34:05.686Z,19.40
2019-06-07T08:36:42.400Z,19.30
2019-06-07T08:39:11.441Z,19.60
2019-06-07T08:41:53.985Z,19.60
2019-06-07T08:44:23.952Z,19.60
2019-06-07T08:46:56.570Z,19.70
2019-06-07T08:49:26.134Z,19.70
2019-06-07T08:54:32.714Z,19.80
2019-06-07T08:57:19.946Z,19.90
2019-06-07T08:59:38.699Z,19.90
2019-06-07T09:02:23.223Z,20.00
2019-06-07T09:04:45.223Z,20.00
2019-06-07T09:07:19.737Z,20.20
2019-06-07T09:09:58.567Z,20.20
2019-06-07T09:12:25.246Z,20.20
2019-06-07T09:15:11.678Z,20.50
2019-06-07T09:22:37.540Z,20.70
2019-06-07T09:25:20.104Z,21.60
2019-06-07T09:27:44.571Z,21.60
2019-06-07T09:30:47.088Z,21.60
2019-06-07T09:33:19.028Z,21.60
2019-06-07T09:35:51.360Z,21.50
2019-06-07T09:38:26.220Z,21.60
2019-06-07T09:41:00.490Z,21.60
2019-06-07T09:46:14.482Z,21.60
2019-06-07T09:49:12.165Z,21.70
2019-06-07T09:51:19.703Z,21.70
2019-06-07T09:53:49.263Z,21.20
2019-06-07T09:56:21.246Z,21.10
2019-06-07T09:58:54.372Z,20.90
2019-06-07T10:01:26.514Z,21.10
2019-06-07T10:04:04.670Z,20.80
2019-06-07T10:06:32.750Z,20.90
2019-06-07T10:11:40.758Z,21.60
2019-06-07T10:14:12.641Z,21.70
2019-06-07T10:16:46.909Z,21.80
2019-06-07T10:19:18.353Z,21.70
2019-06-07T10:21:50.316Z,21.90
2019-06-07T10:24:22.261Z,22.00
2019-06-07T10:31:58.258Z,22.50
2019-06-07T10:34:30.375Z,22.50
2019-06-07T10:37:03.819Z,22.30
2019-06-07T10:39:48.035Z,22.40
2019-06-07T10:42:11.607Z,22.00
2019-06-07T10:44:43.904Z,22.00
2019-06-07T10:47:16.374Z,22.00
2019-06-07T10:59:58.091Z,22.10
2019-06-07T11:02:30.939Z,22.80
2019-06-07T11:15:15.167Z,22.70
2019-06-07T11:20:19.790Z,23.10
2019-06-07T11:40:38.687Z,24.40
2019-06-07T11:43:12.820Z,24.20
2019-06-07T11:45:45.016Z,23.90
2019-06-07T11:48:19.943Z,23.70
2019-06-07T11:50:51.970Z,24.10
2019-06-07T11:53:23.961Z,24.40
2019-06-07T11:55:56.010Z,24.60
2019-06-07T11:58:28.178Z,24.80
2019-06-07T12:01:00.419Z,24.90
2019-06-07T12:03:32.373Z,24.80
2019-06-07T12:06:04.254Z,24.60
2019-06-07T12:08:37.368Z,24.60
2019-06-07T12:11:10.594Z,24.40
2019-06-07T12:13:42.585Z,24.40
2019-06-07T12:16:15.361Z,24.50
2019-06-07T12:18:47.388Z,24.60
2019-06-07T12:21:19.913Z,24.80
2019-06-07T12:23:51.899Z,25.00
2019-06-07T12:26:43.768Z,25.30
2019-06-07T12:29:17.181Z,25.10
2019-06-07T12:39:27.828Z,25.30
2019-06-07T12:42:00.442Z,25.70
2019-06-07T12:44:32.730Z,25.10
2019-06-07T12:47:04.732Z,25.10
2019-06-07T12:49:36.706Z,25.30
2019-06-07T12:52:09.095Z,25.30
2019-06-07T12:54:40.851Z,25.30
2019-06-07T12:57:13.897Z,25.30
2019-06-07T12:59:46.760Z,25.50
2019-06-07T13:02:20.008Z,25.40
2019-06-07T13:04:52.862Z,25.50
2019-06-07T13:07:25.021Z,25.50
2019-06-07T13:25:12.492Z,25.80
2019-06-07T13:27:44.506Z,26.40
2019-06-07T13:30:16.995Z,25.80
2019-06-07T13:32:49.351Z,25.90
2019-06-07T13:35:23.689Z,26.20
2019-06-07T13:37:59.439Z,25.50
2019-06-07T13:40:30.354Z,25.70
2019-06-07T13:43:02.415Z,26.00
2019-06-07T13:45:34.378Z,26.10
2019-06-07T14:38:56.917Z,26.50
2019-06-07T14:41:29.529Z,27.30
2019-06-07T14:44:02.258Z,27.20
2019-06-07T14:46:34.470Z,27.30
2019-06-07T14:49:06.634Z,27.10
2019-06-07T14:51:38.677Z,27.20
2019-06-07T14:54:11.221Z,27.20
2019-06-07T14:56:43.521Z,27.30
2019-06-07T14:59:16.406Z,27.20
2019-06-07T15:01:48.609Z,27.00
2019-06-07T15:04:20.560Z,27.20
2019-06-07T15:06:53.068Z,27.30
2019-06-07T15:09:26.707Z,27.20
2019-06-07T15:11:59.939Z,27.20
2019-06-07T15:14:33.342Z,27.00
2019-06-07T15:17:06.148Z,27.10
2019-06-07T15:19:39.098Z,26.90
2019-06-07T15:22:11.836Z,27.00
2019-06-07T15:24:44.425Z,27.00
2019-06-07T15:27:17.390Z,27.00
2019-06-07T15:29:49.429Z,27.00
2019-06-07T15:32:23.748Z,27.10
2019-06-07T15:34:56.761Z,27.20
2019-06-07T15:37:28.765Z,27.10
2019-06-07T15:40:01.264Z,27.10
2019-06-07T15:42:48.119Z,26.80
2019-06-07T15:45:08.424Z,26.70
2019-06-07T15:47:40.766Z,26.80
2019-06-07T15:50:13.446Z,26.90
2019-06-07T15:52:45.800Z,26.90
2019-06-07T15:55:18.190Z,26.90
2019-06-07T15:57:50.304Z,26.90
2019-06-07T16:00:23.058Z,26.90
2019-06-07T16:02:55.246Z,27.00
2019-06-07T16:05:27.317Z,27.00
2019-06-07T16:07:59.440Z,27.00
2019-06-07T16:10:34.629Z,27.00
2019-06-07T16:13:06.407Z,27.00
2019-06-07T16:15:39.182Z,27.00
2019-06-07T16:18:11.265Z,27.00
2019-06-07T16:20:43.828Z,27.00
2019-06-07T16:23:15.904Z,26.80
2019-06-07T16:25:48.122Z,26.80
2019-06-07T16:28:20.262Z,26.90
2019-06-07T16:30:52.475Z,26.90
2019-06-07T16:33:24.926Z,27.10
2019-06-07T16:35:57.723Z,27.10
2019-06-07T16:38:29.787Z,27.10
2019-06-07T16:41:01.824Z,27.10
2019-06-07T16:43:33.978Z,27.00
2019-06-07T16:46:06.604Z,27.00
2019-06-07T16:48:40.718Z,26.90
2019-06-07T16:51:13.196Z,26.80
2019-06-07T16:53:45.592Z,26.80
2019-06-07T16:56:18.007Z,26.90
2019-06-07T16:58:50.423Z,26.90
2019-06-07T17:01:22.661Z,26.70
2019-06-07T17:03:56.029Z,26.70
2019-06-07T17:06:28.904Z,26.70
2019-06-07T17:09:01.449Z,26.60
2019-06-07T17:11:33.672Z,26.50
2019-06-07T17:14:05.908Z,26.40
2019-06-07T17:16:38.845Z,26.30
2019-06-07T17:19:11.077Z,26.20
2019-06-07T17:21:43.363Z,26.20
2019-06-07T17:24:16.903Z,26.10
2019-06-07T17:26:49.746Z,26.00
2019-06-07T17:29:22.263Z,26.00
2019-06-07T17:31:54.399Z,25.90
2019-06-07T17:34:26.370Z,25.90
2019-06-07T17:36:58.620Z,25.80
2019-06-07T17:42:03.753Z,25.80
2019-06-07T17:44:35.846Z,25.60
2019-06-07T17:47:08.119Z,25.40
2019-06-07T17:49:41.632Z,25.40
2019-06-07T17:52:14.177Z,25.30
2019-06-07T17:57:20.740Z,25.30
2019-06-07T17:59:52.926Z,25.00
2019-06-07T18:02:25.144Z,25.00
2019-06-07T18:04:57.534Z,24.90
2019-06-07T18:07:30.567Z,24.80
2019-06-07T18:10:04.274Z,24.80
2019-06-07T18:12:36.307Z,24.70
2019-06-07T18:15:10.557Z,24.60
2019-06-07T18:17:44.436Z,24.60
2019-06-07T18:20:16.831Z,24.60
2019-06-07T18:22:51.178Z,24.50
2019-06-07T18:25:23.755Z,24.50
2019-06-07T18:27:55.880Z,24.50
2019-06-07T18:30:28.902Z,24.40
2019-06-07T18:33:01.135Z,24.30
2019-06-07T18:35:33.263Z,24.30
2019-06-07T18:38:05.453Z,24.30
2019-06-07T18:40:37.682Z,24.20
2019-06-07T18:43:10.112Z,24.20
2019-06-07T18:45:42.389Z,24.10
2019-06-07T18:48:14.381Z,24.10
2019-06-07T18:50:46.637Z,24.10
2019-06-07T18:53:19.298Z,24.00
2019-06-07T18:55:52.262Z,24.00
2019-06-07T18:58:24.863Z,23.90
2019-06-07T19:00:57.597Z,23.90
2019-06-07T19:03:30.127Z,23.80
2019-06-07T19:06:01.951Z,23.80
2019-06-07T19:08:34.016Z,23.80
2019-06-07T19:11:06.031Z,23.70
2019-06-07T19:13:38.582Z,23.70
2019-06-07T19:16:11.115Z,23.60
2019-06-07T19:18:43.086Z,23.50
2019-06-07T19:21:15.365Z,23.50
2019-06-07T19:23:47.713Z,23.40
2019-06-07T19:26:20.144Z,23.40
2019-06-07T19:28:52.524Z,23.40
2019-06-07T19:31:24.596Z,23.30
2019-06-07T19:33:57.264Z,23.20
2019-06-07T19:36:29.936Z,23.10
2019-06-07T19:41:35.153Z,23.10
2019-06-07T19:44:07.565Z,23.10
2019-06-07T19:46:39.875Z,23.00
2019-06-07T19:49:12.179Z,23.00
2019-06-07T19:51:44.607Z,23.00
2019-06-07T19:54:16.833Z,23.00
2019-06-07T19:56:48.947Z,22.90
2019-06-07T19:59:21.049Z,22.90
2019-06-07T20:01:53.626Z,22.90
2019-06-07T20:04:25.747Z,22.80
2019-06-07T20:06:58.343Z,22.80
2019-06-07T20:09:31.276Z,22.80
2019-06-07T20:12:04.777Z,22.80
2019-06-07T20:14:37.316Z,22.80
2019-06-07T20:17:09.742Z,22.70
2019-06-07T20:19:42.426Z,22.70
2019-06-07T20:22:15.266Z,22.70
2019-06-07T20:24:48.726Z,22.60
2019-06-07T20:27:20.729Z,22.60
2019-06-07T20:29:53.275Z,22.50
2019-06-07T20:32:25.729Z,22.50
2019-06-07T20:34:59.584Z,22.50
2019-06-07T20:37:31.800Z,22.50
2019-06-07T20:40:19.571Z,22.50
2019-06-07T20:42:40.021Z,22.40
2019-06-07T20:45:13.870Z,22.40
2019-06-07T20:47:46.317Z,22.30
2019-06-07T20:50:19.333Z,22.20
2019-06-07T20:52:52.560Z,22.20
2019-06-07T20:55:24.643Z,22.10
2019-06-07T20:57:56.944Z,22.10
2019-06-07T21:00:30.334Z,22.10
2019-06-07T21:03:03.257Z,22.10
2019-06-07T21:05:35.421Z,22.10
2019-06-07T21:08:10.735Z,22.00
2019-06-07T21:10:41.865Z,22.00
2019-06-07T21:13:14.444Z,21.90
2019-06-07T21:15:49.233Z,21.90
2019-06-07T21:18:21.128Z,21.90
2019-06-07T21:20:53.566Z,21.90
2019-06-07T21:23:26.320Z,21.90
2019-06-07T21:25:58.742Z,21.80
2019-06-07T21:28:30.915Z,21.80
2019-06-07T21:31:03.768Z,21.70
2019-06-07T21:33:37.613Z,21.70
2019-06-07T21:36:11.783Z,21.70
2019-06-07T21:38:45.131Z,21.70
2019-06-07T21:41:17.825Z,21.70
2019-06-07T21:43:50.258Z,21.70
2019-06-07T21:46:22.236Z,21.60
2019-06-07T21:48:54.557Z,21.60
2019-06-07T21:51:26.551Z,21.60
2019-06-07T21:53:58.873Z,21.60
2019-06-07T21:56:31.008Z,21.60
2019-06-07T21:59:03.389Z,21.60
2019-06-07T22:01:36.469Z,21.60
2019-06-07T22:04:09.635Z,21.50
2019-06-07T22:06:41.956Z,21.40
2019-06-07T22:09:14.734Z,21.40
2019-06-07T22:11:47.356Z,21.40
2019-06-07T22:14:20.693Z,21.40
2019-06-07T22:16:52.678Z,21.40
2019-06-07T22:19:25.023Z,21.40
2019-06-07T22:22:02.804Z,21.30
2019-06-07T22:24:31.652Z,21.30
2019-06-07T22:27:04.849Z,21.30
2019-06-07T22:29:37.008Z,21.30
2019-06-07T22:32:10.827Z,21.30
2019-06-07T22:34:43.928Z,21.30
2019-06-07T22:37:17.650Z,21.20
2019-06-07T22:39:49.980Z,21.20
2019-06-07T22:42:22.026Z,21.20
2019-06-07T22:44:53.929Z,21.20
2019-06-07T22:47:25.934Z,21.20
2019-06-07T22:49:58.582Z,21.20
2019-06-07T22:52:31.055Z,21.20
2019-06-07T22:55:03.692Z,21.10
2019-06-07T22:57:54.395Z,21.10
2019-06-07T23:00:28.226Z,21.10
2019-06-07T23:03:00.594Z,21.10
2019-06-07T23:05:33.485Z,21.00
2019-06-07T23:10:37.615Z,21.00
2019-06-07T23:13:11.228Z,21.00
2019-06-07T23:15:43.702Z,21.00
2019-06-07T23:18:15.717Z,21.00
2019-06-07T23:20:48.332Z,20.90
2019-06-07T23:23:20.941Z,20.90
2019-06-07T23:25:53.758Z,20.90
2019-06-07T23:28:26.237Z,20.90
2019-06-07T23:30:58.221Z,20.90
2019-06-07T23:33:31.020Z,20.90
2019-06-07T23:36:03.763Z,20.90
2019-06-07T23:38:35.643Z,20.90
2019-06-07T23:41:07.627Z,20.80
2019-06-07T23:43:39.934Z,20.80
2019-06-07T23:46:13.320Z,20.80
2019-06-07T23:48:45.918Z,20.70
2019-06-07T23:51:17.836Z,20.70
2019-06-07T23:53:50.178Z,20.70
2019-06-07T23:56:22.620Z,20.70
2019-06-07T23:58:54.612Z,20.70
